Time;durP1;ratioP1;P1;durP2;ratioP2;P2;SDS_P1;SDS_P2;PMS_P1;PMS_P2;Temp;Humidity;BMP_temperature;BMP_pressure;BME280_temperature;BME280_humidity;BME280_pressure;Samples;Min_cycle;Max_cycle;Signal;HPM_P1;HPM_P2
2023/12/23 00:02:17;;;;;;;2.67;1.30;;;7.50;91.00;;;6.39;98.25;96712.81;5011387;28;20487;-72
2023/12/23 00:04:45;;;;;;;2.10;0.90;;;7.30;92.40;;;6.19;100.00;96708.47;5015385;28;20517;-75
2023/12/23 00:07:14;;;;;;;0.83;0.83;;;7.10;93.70;;;6.05;100.00;96718.47;5011402;28;20463;-72
2023/12/23 00:09:41;;;;;;;1.17;1.00;;;6.90;94.70;;;6.03;100.00;96735.81;5011137;28;20455;-72
2023/12/23 00:12:09;;;;;;;1.37;1.20;;;6.80;95.80;;;5.92;100.00;96730.09;5020532;28;20465;-73
2023/12/23 00:14:36;;;;;;;2.97;1.20;;;6.80;96.70;;;5.93;100.00;96720.19;5018092;28;21014;-72
2023/12/23 00:17:05;;;;;;;1.07;0.83;;;6.80;97.30;;;5.92;100.00;96754.22;5013442;28;20671;-73
2023/12/23 00:19:32;;;;;;;0.80;0.80;;;6.80;96.40;;;5.68;100.00;96705.69;5013961;28;20550;-74
2023/12/23 00:22:00;;;;;;;1.00;0.90;;;6.70;96.30;;;5.87;100.00;96729.09;5016163;28;20493;-75
2023/12/23 00:24:29;;;;;;;1.50;0.63;;;6.70;96.10;;;5.88;100.00;96744.13;5005449;28;20501;-74
2023/12/23 00:26:57;;;;;;;1.53;0.53;;;6.70;94.90;;;5.84;100.00;96749.13;5014043;28;20585;-73
2023/12/23 00:29:25;;;;;;;0.70;0.50;;;6.70;95.30;;;5.83;100.00;96779.63;5019733;28;20464;-73
2023/12/23 00:31:53;;;;;;;1.13;0.60;;;6.70;96.10;;;5.80;100.00;96764.81;5012392;28;20495;-73
2023/12/23 00:34:20;;;;;;;1.63;0.70;;;6.70;95.10;;;5.74;100.00;96778.25;5022686;28;20446;-72
2023/12/23 00:36:48;;;;;;;1.00;0.40;;;6.70;95.00;;;5.66;100.00;96765.91;4999003;28;20540;-73
2023/12/23 00:39:16;;;;;;;0.43;0.30;;;6.60;93.70;;;5.68;100.00;96791.44;5017204;28;20562;-73
2023/12/23 00:41:43;;;;;;;0.90;0.47;;;6.50;94.70;;;5.58;100.00;96809.88;5013569;28;20515;-73
2023/12/23 00:44:11;;;;;;;3.20;0.67;;;6.50;95.20;;;5.56;100.00;96797.72;4999784;28;20469;-72
2023/12/23 00:46:39;;;;;;;1.40;0.40;;;6.40;95.80;;;5.48;100.00;96796.94;5021001;28;20454;-72
2023/12/23 00:49:07;;;;;;;0.83;0.50;;;6.40;97.10;;;5.47;100.00;96807.84;5002482;28;20463;-73
2023/12/23 00:51:34;;;;;;;1.70;0.70;;;6.30;97.80;;;5.38;100.00;96796.56;5017511;28;20479;-73
2023/12/23 00:54:02;;;;;;;1.57;0.60;;;6.30;99.10;;;5.43;100.00;96806.63;4998560;28;20685;-73
2023/12/23 00:56:30;;;;;;;0.83;0.63;;;6.30;99.30;;;5.38;100.00;96840.25;5018925;28;20516;-71
2023/12/23 00:58:58;;;;;;;0.40;0.30;;;6.30;98.10;;;5.37;100.00;96814.47;5014549;28;20683;-74
2023/12/23 01:01:25;;;;;;;1.83;0.60;;;6.30;97.80;;;5.42;100.00;96834.47;5015810;28;20535;-73
2023/12/23 01:03:53;;;;;;;0.60;0.50;;;6.20;98.80;;;5.36;100.00;96842.28;4995230;28;21041;-74
2023/12/23 01:06:21;;;;;;;0.57;0.43;;;6.20;98.90;;;5.35;100.00;96829.94;5014760;28;20485;-74
2023/12/23 01:08:49;;;;;;;0.40;0.30;;;6.20;99.60;;;5.32;100.00;96870.53;5018556;28;20463;-74
2023/12/23 01:11:16;;;;;;;1.30;0.47;;;6.20;99.50;;;5.35;100.00;96853.22;4996390;28;20450;-75
2023/12/23 01:13:45;;;;;;;0.50;0.50;;;6.20;99.20;;;5.30;100.00;96869.94;5014287;28;20527;-75
2023/12/23 01:16:13;;;;;;;0.67;0.43;;;6.20;98.90;;;5.30;100.00;96867.25;5018456;28;21033;-74
2023/12/23 01:18:40;;;;;;;0.40;0.40;;;6.20;98.10;;;5.29;100.00;96870.97;5013330;28;20458;-75
2023/12/23 01:21:07;;;;;;;1.27;0.50;;;6.20;97.60;;;5.29;100.00;96870.13;5015557;28;20489;-75
2023/12/23 01:23:35;;;;;;;1.23;0.50;;;6.20;98.30;;;5.31;100.00;96892.19;5018335;28;20473;-74
2023/12/23 01:26:03;;;;;;;0.40;0.30;;;6.10;98.30;;;5.28;100.00;96885.38;5008455;28;20467;-75
2023/12/23 01:28:30;;;;;;;0.53;0.53;;;6.10;98.10;;;5.22;100.00;96886.19;5015136;28;20465;-74
2023/12/23 01:30:59;;;;;;;0.70;0.70;;;6.20;96.90;;;5.28;100.00;96904.13;5004030;28;21070;-74
2023/12/23 01:33:26;;;;;;;1.80;0.50;;;6.20;96.00;;;5.28;100.00;96922.88;5001704;28;20528;-75
2023/12/23 01:35:53;;;;;;;2.70;0.40;;;6.20;94.60;;;5.34;100.00;96935.44;5004092;28;20598;-74
2023/12/23 01:38:21;;;;;;;0.93;0.50;;;6.20;96.10;;;5.23;100.00;96933.38;4994456;28;20572;-76
2023/12/23 01:40:49;;;;;;;0.90;0.67;;;6.10;97.10;;;5.23;100.00;96947.59;4996648;28;20461;-75
2023/12/23 01:43:17;;;;;;;0.40;0.40;;;6.10;98.10;;;5.20;100.00;96944.50;5013618;28;21178;-74
2023/12/23 01:45:44;;;;;;;1.10;0.70;;;6.10;97.70;;;5.28;100.00;96964.91;4994348;28;20455;-74
2023/12/23 01:48:16;;;;;;;1.30;0.77;;;6.10;97.90;;;5.22;100.00;96967.38;4997700;28;20466;-76
2023/12/23 01:50:44;;;;;;;0.50;0.50;;;6.10;97.30;;;5.10;100.00;96964.50;4998166;28;20458;-74
2023/12/23 01:53:11;;;;;;;0.40;0.40;;;6.00;97.40;;;5.10;100.00;96975.22;5001286;28;21143;-74
2023/12/23 01:55:38;;;;;;;0.70;0.70;;;6.00;97.30;;;5.16;100.00;96972.75;5003973;28;20562;-73
2023/12/23 01:58:07;;;;;;;1.00;0.40;;;6.00;98.20;;;4.99;100.00;96996.41;5030986;28;20482;-73
2023/12/23 02:00:34;;;;;;;0.43;0.43;;;5.90;97.10;;;4.89;100.00;96984.28;5035137;28;20472;-74
2023/12/23 02:03:04;;;;;;;0.70;0.60;;;5.90;97.50;;;4.90;100.00;96995.78;5001136;28;20501;-72
2023/12/23 02:05:33;;;;;;;0.50;0.40;;;5.80;97.00;;;4.94;100.00;97002.41;4999255;28;20482;-74
2023/12/23 02:08:00;;;;;;;1.30;0.60;;;5.80;97.80;;;4.86;100.00;96990.03;5003639;28;20449;-73
2023/12/23 02:10:29;;;;;;;0.60;0.57;;;5.70;98.70;;;4.81;100.00;97016.56;5017684;28;20462;-73
2023/12/23 02:13:09;;;;;;;0.83;0.50;;;5.70;99.20;;;4.80;100.00;97007.72;5014018;28;20469;-74
2023/12/23 02:15:38;;;;;;;0.60;0.60;;;5.60;99.30;;;4.70;100.00;97020.66;5016993;28;20465;-75
2023/12/23 02:18:05;;;;;;;0.70;0.40;;;5.60;98.90;;;4.67;100.00;97010.38;5023266;28;20497;-76
2023/12/23 02:20:34;;;;;;;0.70;0.60;;;5.60;98.00;;;4.77;100.00;97028.72;5021479;28;20493;-74
2023/12/23 02:23:04;;;;;;;0.93;0.70;;;5.60;97.60;;;4.74;100.00;97027.25;5015131;28;20489;-73
2023/12/23 02:25:32;;;;;;;0.80;0.50;;;5.60;97.20;;;4.77;100.00;97050.94;5001759;28;20477;-74
2023/12/23 02:28:05;;;;;;;0.90;0.77;;;5.70;96.40;;;4.75;100.00;97036.94;5021990;28;20555;-73
2023/12/23 02:30:35;;;;;;;1.73;0.90;;;5.70;96.10;;;4.75;100.00;97049.50;5017102;28;20563;-73
2023/12/23 02:33:02;;;;;;;1.10;0.80;;;5.60;96.30;;;4.79;100.00;97032.84;5015560;28;20463;-73
2023/12/23 02:35:29;;;;;;;1.27;0.60;;;5.60;96.60;;;4.80;100.00;97039.84;5018827;28;20466;-75
2023/12/23 02:37:57;;;;;;;1.10;0.50;;;5.60;96.80;;;4.81;100.00;97040.66;5016870;28;20490;-74
2023/12/23 02:40:26;;;;;;;0.97;0.60;;;5.60;96.70;;;4.76;100.00;97038.56;5021737;28;20470;-74
2023/12/23 02:42:53;;;;;;;0.70;0.70;;;5.60;95.60;;;4.76;100.00;97053.81;4999753;28;20490;-73
2023/12/23 02:45:21;;;;;;;0.80;0.70;;;5.60;96.10;;;4.78;100.00;97071.34;4995454;28;20988;-73
2023/12/23 02:47:48;;;;;;;0.73;0.70;;;5.60;95.80;;;4.73;100.00;97067.63;5015529;28;20966;-74
2023/12/23 02:50:16;;;;;;;1.27;0.80;;;5.60;95.80;;;4.73;100.00;97073.78;4997585;28;20497;-73
2023/12/23 02:52:43;;;;;;;1.10;1.00;;;5.60;95.70;;;4.70;100.00;97074.19;4999546;28;20552;-73
2023/12/23 02:55:11;;;;;;;1.13;0.73;;;5.60;95.50;;;4.74;100.00;97085.31;5015972;28;20519;-72
2023/12/23 02:57:40;;;;;;;1.50;1.03;;;5.60;95.70;;;4.73;100.00;97081.81;5020178;28;20954;-73
2023/12/23 03:00:09;;;;;;;1.60;1.00;;;5.60;95.40;;;4.71;100.00;97089.22;4995930;28;20520;-73
2023/12/23 03:02:36;;;;;;;1.83;0.77;;;5.60;95.40;;;4.68;100.00;97087.75;5015234;28;20569;-72
2023/12/23 03:05:05;;;;;;;2.60;0.70;;;5.60;95.80;;;4.74;100.00;97104.06;5022331;28;20469;-73
2023/12/23 03:07:32;;;;;;;0.80;0.80;;;5.60;95.20;;;4.70;100.00;97097.44;5016589;28;20520;-74
2023/12/23 03:10:00;;;;;;;2.20;0.60;;;5.60;93.50;;;4.73;100.00;97107.75;5016020;28;20466;-73
2023/12/23 03:12:27;;;;;;;1.40;0.73;;;5.60;93.20;;;4.74;100.00;97101.38;5013445;28;20900;-73
2023/12/23 03:14:56;;;;;;;2.40;0.73;;;5.70;93.00;;;4.76;99.01;97115.38;5021333;28;20458;-74
2023/12/23 03:17:25;;;;;;;3.27;0.70;;;5.70;92.30;;;4.78;98.75;97106.13;5003624;28;20472;-73
2023/12/23 03:19:54;;;;;;;0.60;0.53;;;5.70;92.10;;;4.77;98.84;97104.47;5021530;28;20460;-73
2023/12/23 03:22:22;;;;;;;0.80;0.60;;;5.70;92.20;;;4.78;98.69;97098.09;5017962;28;20578;-73
2023/12/23 03:24:50;;;;;;;1.37;0.70;;;5.70;92.10;;;4.84;98.40;97107.16;5006021;28;20537;-72
2023/12/23 03:27:18;;;;;;;0.93;0.60;;;5.70;92.10;;;4.87;98.62;97105.94;5016114;28;20477;-72
2023/12/23 03:29:46;;;;;;;1.30;0.57;;;5.70;92.30;;;4.91;98.06;97112.53;5005912;28;20465;-71
2023/12/23 03:32:15;;;;;;;0.70;0.57;;;5.70;92.10;;;4.82;97.15;97104.69;5004057;28;20858;-72
2023/12/23 03:34:42;;;;;;;2.10;0.40;;;5.80;91.40;;;4.89;95.64;97114.59;5019496;28;20465;-72
2023/12/23 03:37:09;;;;;;;1.30;0.33;;;5.80;90.80;;;4.95;95.09;97103.09;5016015;28;20459;-72
2023/12/23 03:39:37;;;;;;;0.80;0.43;;;5.90;90.70;;;4.89;95.81;97094.00;5016823;28;20489;-71
2023/12/23 03:42:05;;;;;;;0.77;0.77;;;5.80;90.80;;;4.93;95.29;97091.78;5014278;28;20491;-71
2023/12/23 03:44:33;;;;;;;1.27;0.67;;;5.80;90.70;;;4.96;95.71;97092.16;4998590;28;20903;-71
2023/12/23 03:47:00;;;;;;;0.50;0.40;;;5.90;90.60;;;4.97;95.59;97093.00;4997681;28;20443;-71
2023/12/23 03:49:28;;;;;;;0.90;0.50;;;5.80;90.70;;;4.92;95.39;97090.94;5023977;28;20470;-70
2023/12/23 03:51:57;;;;;;;1.67;0.50;;;5.90;90.90;;;4.95;96.38;97103.91;5018765;28;20438;-70
2023/12/23 03:54:24;;;;;;;0.73;0.47;;;5.80;91.10;;;4.90;97.07;97092.16;5016534;28;20457;-70
2023/12/23 03:56:52;;;;;;;0.50;0.50;;;5.80;91.50;;;4.84;97.32;97098.31;5010990;28;20451;-70
2023/12/23 03:59:20;;;;;;;2.30;0.60;;;5.80;91.50;;;4.88;96.80;97108.44;5012771;28;20544;-70
2023/12/23 04:01:47;;;;;;;0.63;0.60;;;5.80;91.40;;;4.92;96.89;97090.09;5011288;28;20463;-71
2023/12/23 04:04:15;;;;;;;0.60;0.60;;;5.80;91.40;;;4.92;96.32;97090.09;5016889;28;20532;-70
2023/12/23 04:06:43;;;;;;;1.50;0.50;;;5.80;91.20;;;4.96;96.17;97088.69;4995724;28;20477;-71
2023/12/23 04:09:11;;;;;;;2.57;0.70;;;5.80;91.10;;;4.94;95.18;97088.06;4995298;28;20906;-71
2023/12/23 04:11:38;;;;;;;1.70;0.40;;;5.80;90.90;;;4.42;94.84;97002.09;5012321;28;20460;-72
2023/12/23 04:14:05;;;;;;;1.33;0.60;;;5.80;90.60;;;4.61;94.60;97040.59;5017135;28;20474;-71
2023/12/23 04:16:33;;;;;;;2.13;0.80;;;5.80;90.70;;;4.97;94.03;97098.34;5010236;28;20576;-71
2023/12/23 04:19:00;;;;;;;1.93;0.70;;;5.90;90.30;;;5.03;93.11;97097.53;4998112;28;20457;-71
2023/12/23 04:21:28;;;;;;;0.70;0.57;;;5.90;90.00;;;5.04;92.75;97085.81;5000857;28;20465;-71
2023/12/23 04:23:58;;;;;;;0.60;0.60;;;5.90;89.70;;;5.03;94.07;97094.84;4999169;28;20469;-71
2023/12/23 04:26:26;;;;;;;2.00;0.37;;;5.90;90.00;;;4.83;94.61;97086.78;5015318;28;20534;-71
2023/12/23 04:28:56;;;;;;;1.23;0.40;;;5.90;90.20;;;4.91;95.41;97101.81;5009579;28;20537;-71
2023/12/23 04:31:23;;;;;;;1.43;0.50;;;5.80;90.90;;;4.90;97.18;97087.63;4998440;28;20458;-71
2023/12/23 04:33:51;;;;;;;0.63;0.40;;;5.80;91.70;;;4.81;97.28;97112.91;4991703;28;20481;-71
2023/12/23 04:36:18;;;;;;;1.60;0.50;;;5.70;91.90;;;4.83;98.36;97094.81;5013020;28;20464;-72
2023/12/23 04:38:46;;;;;;;2.10;0.40;;;5.70;92.10;;;4.79;99.61;97104.28;5013919;28;20462;-71
2023/12/23 04:41:15;;;;;;;1.63;1.27;;;5.60;92.70;;;4.77;99.39;97099.09;5017260;28;20495;-71
2023/12/23 04:43:43;;;;;;;0.83;0.60;;;5.60;92.90;;;4.71;100.00;97088.41;5018798;28;20492;-71
2023/12/23 04:46:10;;;;;;;1.37;0.40;;;5.60;93.50;;;4.75;100.00;97101.16;4997638;28;20545;-71
2023/12/23 04:48:38;;;;;;;0.60;0.50;;;5.60;94.50;;;4.74;100.00;97091.47;4998438;28;20486;-72
2023/12/23 04:51:05;;;;;;;0.77;0.43;;;5.60;95.40;;;4.70;100.00;97103.63;5014807;28;20467;-72
2023/12/23 04:53:33;;;;;;;4.40;0.70;;;5.50;96.00;;;4.63;100.00;97095.56;5013344;28;20465;-70
2023/12/23 04:56:01;;;;;;;0.60;0.50;;;5.50;96.50;;;4.61;100.00;97094.09;5006846;28;20481;-71
2023/12/23 04:58:29;;;;;;;1.00;0.63;;;5.50;97.60;;;4.61;100.00;97094.09;5000670;28;20454;-71
2023/12/23 05:00:57;;;;;;;0.70;0.60;;;5.40;98.50;;;4.69;100.00;97096.63;5017364;28;20471;-70
2023/12/23 05:03:24;;;;;;;2.20;0.73;;;5.50;99.90;;;4.58;100.00;97094.50;4999805;28;20481;-70
2023/12/23 05:05:51;;;;;;;3.00;0.83;;;5.40;99.90;;;4.66;100.00;97092.50;5015698;28;20469;-70
2023/12/23 05:08:20;;;;;;;3.23;1.13;;;5.40;99.90;;;4.66;100.00;97089.81;5016438;28;20485;-70
2023/12/23 05:10:47;;;;;;;1.50;0.90;;;5.50;99.90;;;4.61;100.00;97075.38;5014725;28;20465;-70
2023/12/23 05:13:16;;;;;;;1.73;0.90;;;5.50;99.90;;;4.68;100.00;97078.91;4997850;28;20468;-70
2023/12/23 05:15:44;;;;;;;1.30;0.90;;;5.40;99.90;;;4.64;100.00;97069.66;5006287;28;20471;-71
2023/12/23 05:18:12;;;;;;;1.07;1.07;;;5.50;99.90;;;4.68;100.00;97046.81;5014256;28;20545;-70
2023/12/23 05:20:39;;;;;;;1.17;0.93;;;5.50;99.90;;;4.76;100.00;97056.50;5016672;28;20454;-69
2023/12/23 05:23:06;;;;;;;0.80;0.70;;;5.50;99.90;;;4.79;100.00;97048.06;5002905;28;20500;-71
2023/12/23 05:25:33;;;;;;;1.90;0.80;;;5.50;99.90;;;4.61;100.00;97032.56;5001579;28;20465;-69
2023/12/23 05:28:01;;;;;;;1.20;0.80;;;5.50;99.90;;;4.76;100.00;97043.94;5017923;28;20525;-69
2023/12/23 05:30:29;;;;;;;0.97;0.93;;;5.50;99.90;;;4.78;100.00;97039.22;5019753;28;20474;-70
2023/12/23 05:32:57;;;;;;;1.73;1.10;;;5.50;99.90;;;4.71;100.00;97029.53;5020633;28;20462;-70
2023/12/23 05:35:25;;;;;;;1.97;0.70;;;5.50;99.90;;;4.79;100.00;97013.28;5016773;28;20459;-70
2023/12/23 05:37:53;;;;;;;1.93;0.87;;;5.60;99.90;;;4.93;100.00;97019.50;5002424;28;20457;-70
2023/12/23 05:40:20;;;;;;;0.60;0.60;;;5.60;99.90;;;4.89;100.00;97015.56;5000073;28;20457;-70
2023/12/23 05:42:48;;;;;;;1.47;1.00;;;5.70;99.90;;;4.89;100.00;97007.53;5012349;28;20489;-70
2023/12/23 05:45:15;;;;;;;1.07;0.80;;;5.70;99.90;;;4.82;100.00;96994.97;5017384;28;20466;-69
2023/12/23 05:47:43;;;;;;;1.20;0.83;;;5.70;99.90;;;5.01;100.00;97007.75;5019887;28;20473;-69
2023/12/23 05:50:12;;;;;;;1.10;1.00;;;5.70;99.90;;;5.06;100.00;97006.09;5014556;28;20455;-72
2023/12/23 05:52:39;;;;;;;1.43;0.97;;;5.70;99.90;;;5.11;100.00;97002.81;5009301;28;20442;-72
2023/12/23 05:55:09;;;;;;;1.63;0.90;;;5.80;99.90;;;5.04;100.00;96988.59;5011210;28;20531;-70
2023/12/23 05:57:36;;;;;;;1.03;0.90;;;5.80;99.90;;;4.81;100.00;96947.81;4997572;28;20542;-70
2023/12/23 06:00:05;;;;;;;0.87;0.80;;;5.80;99.90;;;4.71;100.00;96912.59;4997610;28;20462;-70
2023/12/23 06:02:33;;;;;;;1.10;1.00;;;5.90;99.90;;;4.94;100.00;96947.00;5022457;28;20488;-70
2023/12/23 06:05:00;;;;;;;2.17;0.90;;;6.00;99.90;;;5.28;100.00;96975.59;5004237;28;21009;-71
2023/12/23 06:07:28;;;;;;;1.07;0.97;;;6.10;99.90;;;5.28;100.00;96972.94;5003961;28;20461;-71
2023/12/23 06:09:57;;;;;;;1.90;1.03;;;6.20;99.90;;;5.48;100.00;96970.25;5006525;28;20469;-70
2023/12/23 06:12:24;;;;;;;1.57;1.00;;;6.30;99.90;;;5.50;100.00;96978.88;5003220;28;20454;-70
2023/12/23 06:14:53;;;;;;;6.53;1.00;;;6.30;99.90;;;5.62;100.00;96987.94;5000304;28;20541;-70
2023/12/23 06:17:21;;;;;;;3.40;1.47;;;6.40;99.90;;;5.67;100.00;96968.56;4991489;28;20522;-70
2023/12/23 06:19:48;;;;;;;1.90;1.40;;;6.40;99.90;;;5.74;100.00;96968.53;4999782;28;20658;-70
2023/12/23 06:22:16;;;;;;;1.63;1.20;;;6.40;99.90;;;5.77;100.00;96978.84;5017872;28;20458;-71
2023/12/23 06:24:45;;;;;;;3.03;1.10;;;6.50;99.80;;;5.79;100.00;96974.94;5015695;28;20466;-70
2023/12/23 06:27:13;;;;;;;2.70;1.37;;;6.60;98.50;;;5.86;100.00;96966.88;5000192;28;20549;-70
2023/12/23 06:29:41;;;;;;;1.23;1.00;;;6.60;98.30;;;5.59;100.00;96934.78;5017416;28;20469;-70
2023/12/23 06:32:08;;;;;;;0.80;0.80;;;6.60;98.30;;;5.92;100.00;96973.25;5021743;28;20461;-70
2023/12/23 06:34:35;;;;;;;1.80;1.00;;;6.70;96.50;;;5.96;100.00;96964.53;5001925;28;20456;-68
2023/12/23 06:37:04;;;;;;;1.03;0.90;;;6.70;96.70;;;5.83;100.00;96945.81;5018670;28;20460;-68
2023/12/23 06:39:32;;;;;;;0.90;0.90;;;6.80;96.70;;;6.02;100.00;96960.22;5002519;28;20487;-69
2023/12/23 06:42:01;;;;;;;1.13;1.07;;;6.80;96.70;;;6.04;100.00;96954.66;5015154;28;21291;-68
2023/12/23 06:44:28;;;;;;;1.70;1.07;;;6.70;96.60;;;6.00;100.00;96954.22;5015047;28;20478;-68
2023/12/23 06:46:57;;;;;;;1.90;1.00;;;6.70;96.40;;;6.01;100.00;96947.84;4995208;28;20497;-69
2023/12/23 06:49:27;;;;;;;1.07;0.90;;;6.70;95.70;;;6.03;100.00;96947.66;5002329;28;20587;-68
2023/12/23 06:51:54;;;;;;;0.93;0.67;;;6.80;95.10;;;6.02;100.00;96937.97;5002124;28;20464;-68
2023/12/23 06:54:21;;;;;;;1.03;0.70;;;6.80;94.50;;;5.98;100.00;96944.75;5022750;28;20465;-69
2023/12/23 06:56:51;;;;;;;2.73;0.93;;;6.80;94.40;;;5.99;100.00;96951.75;5002328;28;21024;-68
2023/12/23 06:59:20;;;;;;;3.13;0.70;;;6.80;95.20;;;6.04;100.00;96941.25;5023147;28;20454;-68
2023/12/23 07:01:48;;;;;;;0.70;0.70;;;6.80;95.10;;;5.90;100.00;96921.66;5017565;28;20463;-70
2023/12/23 07:04:15;;;;;;;4.80;1.50;;;6.80;95.40;;;6.03;100.00;96939.63;5002278;28;21006;-69
2023/12/23 07:06:44;;;;;;;3.03;0.80;;;6.80;95.40;;;6.11;100.00;96925.94;4978394;28;20477;-67
2023/12/23 07:09:12;;;;;;;2.37;0.87;;;6.80;96.00;;;6.19;100.00;96928.41;5005443;28;20945;-71
2023/12/23 07:11:39;;;;;;;1.20;0.90;;;6.90;95.80;;;6.11;100.00;96927.81;5004498;28;20557;-69
2023/12/23 07:14:06;;;;;;;3.30;1.30;;;6.90;95.80;;;6.13;100.00;96918.50;5003481;28;20465;-69
2023/12/23 07:16:35;;;;;;;1.67;0.90;;;6.90;95.30;;;6.23;100.00;96920.75;5013262;28;20465;-68
2023/12/23 07:19:05;;;;;;;2.10;0.70;;;6.90;95.60;;;6.05;100.00;96926.81;5005488;28;21323;-68
2023/12/23 07:21:53;;;;;;;0.80;0.60;;;6.90;94.80;;;6.29;100.00;96916.34;5008186;28;20453;-70
2023/12/23 07:24:26;;;;;;;1.10;1.00;;;6.90;95.50;;;6.25;100.00;96929.41;5024325;28;20482;-69
2023/12/23 07:26:56;;;;;;;1.93;0.87;;;7.00;95.50;;;6.19;100.00;96923.03;4999661;28;20478;-70
2023/12/23 07:29:23;;;;;;;1.13;1.13;;;7.00;95.00;;;6.36;100.00;96927.91;5019646;28;20589;-69
2023/12/23 07:32:03;;;;;;;2.60;1.00;;;7.10;95.40;;;6.35;100.00;96920.88;5018830;28;20452;-69
2023/12/23 07:34:36;;;;;;;1.40;1.30;;;7.10;94.20;;;6.34;100.00;96933.47;5020380;28;20450;-71
2023/12/23 07:37:04;;;;;;;1.00;1.00;;;7.10;94.20;;;6.42;100.00;96932.38;5000408;28;20462;-69
2023/12/23 07:39:39;;;;;;;1.87;1.30;;;7.20;94.10;;;6.35;100.00;96924.38;5003668;28;20833;-71
2023/12/23 07:42:08;;;;;;;1.43;1.30;;;7.10;93.80;;;6.34;100.00;96924.59;4994670;28;20857;-69
2023/12/23 07:44:36;;;;;;;1.30;1.20;;;7.10;93.70;;;6.36;99.54;96935.94;4980082;28;20581;-72
2023/12/23 07:47:09;;;;;;;1.60;1.20;;;7.10;93.40;;;6.37;99.87;96934.91;4980517;28;20466;-71
2023/12/23 07:49:36;;;;;;;4.47;1.27;;;7.20;93.60;;;6.31;100.00;96909.75;5021862;28;20450;-69
2023/12/23 07:52:06;;;;;;;2.67;1.10;;;7.10;93.60;;;6.13;100.00;96894.38;5010590;28;21209;-69
2023/12/23 07:54:34;;;;;;;1.20;1.10;;;7.20;93.80;;;6.32;100.00;96919.44;5013995;28;20455;-69
2023/12/23 07:57:01;;;;;;;1.50;1.40;;;7.20;93.50;;;6.31;100.00;96919.69;5007782;28;20466;-69
2023/12/23 07:59:32;;;;;;;1.17;1.03;;;7.10;93.80;;;6.28;100.00;96915.56;5003405;28;20969;-69
2023/12/23 08:02:00;;;;;;;2.20;1.30;;;7.10;93.90;;;6.29;100.00;96909.16;4991486;28;20517;-69
2023/12/23 08:04:31;;;;;;;0.90;0.87;;;7.10;93.80;;;6.14;100.00;96882.63;5022093;28;20505;-71
2023/12/23 08:06:58;;;;;;;1.63;1.17;;;7.10;94.00;;;6.37;100.00;96919.63;5020918;28;20764;-70
2023/12/23 08:09:25;;;;;;;1.40;0.90;;;7.10;94.30;;;6.34;100.00;96920.06;5020328;28;20450;-70
2023/12/23 08:11:53;;;;;;;2.43;1.00;;;7.10;93.90;;;6.36;100.00;96909.13;4996008;28;20482;-70
2023/12/23 08:14:20;;;;;;;1.10;1.00;;;7.20;94.10;;;6.39;100.00;96922.09;5017329;28;20454;-71
2023/12/23 08:16:48;;;;;;;1.13;0.80;;;7.20;94.00;;;6.38;100.00;96917.75;5011114;28;20561;-70
2023/12/23 08:19:15;;;;;;;2.73;2.10;;;7.20;94.30;;;6.46;100.00;96928.25;5005907;28;20461;-71
2023/12/23 08:21:44;;;;;;;1.80;0.90;;;7.20;94.50;;;6.31;100.00;96890.16;5011511;28;20463;-71
2023/12/23 08:24:13;;;;;;;2.80;2.10;;;7.20;94.00;;;6.04;100.00;96864.31;5016812;28;20513;-71
2023/12/23 08:26:41;;;;;;;1.83;1.30;;;7.20;94.00;;;6.41;100.00;96920.00;5001627;28;20455;-71
2023/12/23 08:29:10;;;;;;;3.90;1.00;;;7.20;94.10;;;6.44;100.00;96919.56;5000997;28;20831;-72
2023/12/23 08:31:44;;;;;;;2.70;1.20;;;7.20;94.20;;;6.47;100.00;96921.00;4997337;28;20459;-71
2023/12/23 08:34:11;;;;;;;1.57;0.57;;;7.20;93.80;;;6.44;99.70;96933.00;5006526;28;20458;-72
2023/12/23 08:36:39;;;;;;;1.30;1.20;;;7.30;93.20;;;6.48;99.59;96904.72;5010899;28;20456;-70
2023/12/23 08:39:07;;;;;;;0.60;0.60;;;7.30;93.40;;;6.57;98.89;96926.75;5012945;28;20457;-71
2023/12/23 08:41:36;;;;;;;0.60;0.60;;;7.30;93.20;;;6.56;98.66;96924.25;4997755;28;20469;-71
2023/12/23 08:44:03;;;;;;;0.77;0.73;;;7.30;92.80;;;6.55;98.14;96914.56;5000186;28;20532;-71
2023/12/23 08:46:31;;;;;;;0.80;0.80;;;7.40;92.50;;;6.59;98.48;96934.56;5015145;28;20542;-70
2023/12/23 08:48:59;;;;;;;1.13;1.03;;;7.40;92.70;;;6.59;97.45;96910.41;5002251;28;20462;-70
2023/12/23 08:51:29;;;;;;;1.57;1.10;;;7.40;92.20;;;6.66;97.75;96900.47;5017950;28;20446;-71
2023/12/23 08:53:57;;;;;;;3.03;0.77;;;7.40;92.30;;;6.72;97.03;96893.41;5018899;28;21039;-71
2023/12/23 08:56:26;;;;;;;1.37;1.07;;;7.40;92.20;;;6.70;97.08;96880.19;5006146;28;20454;-72
2023/12/23 08:58:53;;;;;;;5.93;1.10;;;7.50;92.20;;;6.53;96.47;96858.44;5021317;28;20443;-72
2023/12/23 09:01:22;;;;;;;1.20;0.90;;;7.50;92.20;;;6.79;95.80;96903.03;5014008;28;20999;-71
2023/12/23 09:03:49;;;;;;;1.70;0.80;;;7.60;91.50;;;6.76;94.53;96903.50;5013299;28;20612;-72
2023/12/23 09:06:20;;;;;;;1.97;1.30;;;7.60;90.70;;;6.85;94.71;96897.84;5011879;28;20592;-72
2023/12/23 09:08:50;;;;;;;0.93;0.90;;;7.60;91.20;;;6.92;93.72;96896.72;4993465;28;20463;-72
2023/12/23 09:11:21;;;;;;;0.93;0.77;;;7.60;90.80;;;6.91;93.13;96899.66;5014971;28;20524;-72
2023/12/23 09:13:51;;;;;;;0.83;0.60;;;7.70;90.60;;;6.96;93.08;96905.19;5018040;28;20462;-71
2023/12/23 09:16:18;;;;;;;2.40;0.80;;;7.70;90.30;;;6.98;92.32;96889.66;4997591;28;22514;-73
2023/12/23 09:18:45;;;;;;;0.60;0.60;;;7.70;90.30;;;7.03;91.14;96910.50;4996796;28;21352;-72
2023/12/23 09:21:13;;;;;;;0.77;0.60;;;7.80;89.50;;;6.95;91.17;96904.34;5017230;28;20897;-71
2023/12/23 09:23:41;;;;;;;0.80;0.80;;;7.80;89.30;;;7.13;91.49;96916.19;5011779;28;20482;-73
2023/12/23 09:26:13;;;;;;;1.67;0.90;;;7.80;90.10;;;6.88;91.20;96876.75;5012272;28;20486;-72
2023/12/23 09:28:40;;;;;;;1.53;0.70;;;7.90;89.60;;;7.11;91.09;96895.97;5015031;28;20461;-72
2023/12/23 09:31:12;;;;;;;0.70;0.70;;;7.90;89.80;;;7.07;91.10;96923.28;5008150;28;20594;-71
2023/12/23 09:33:40;;;;;;;0.80;0.60;;;7.90;89.40;;;7.03;92.27;96927.41;5012808;28;20448;-71
2023/12/23 09:36:08;;;;;;;0.80;0.70;;;7.80;89.80;;;6.97;92.33;96912.19;5012674;28;20462;-73
2023/12/23 09:38:35;;;;;;;0.60;0.50;;;7.80;89.90;;;6.99;92.74;96910.09;5024059;28;20454;-72
2023/12/23 09:41:05;;;;;;;0.80;0.60;;;7.80;90.30;;;6.93;93.77;96913.69;4995956;28;20451;-72
2023/12/23 09:43:33;;;;;;;0.90;0.90;;;7.70;90.40;;;6.98;93.59;96932.63;5022102;28;20469;-72
2023/12/23 09:46:03;;;;;;;0.70;0.70;;;7.70;90.50;;;6.87;93.55;96906.47;5015465;28;20455;-73
2023/12/23 09:48:37;;;;;;;2.30;0.70;;;7.70;90.50;;;6.91;93.64;96894.28;5004866;28;20462;-76
2023/12/23 09:51:05;;;;;;;0.90;0.33;;;7.70;90.50;;;6.86;93.21;96920.94;5005287;28;20455;-72
2023/12/23 09:53:37;;;;;;;1.47;0.80;;;7.70;90.40;;;6.97;93.61;96924.78;4997475;28;20472;-72
2023/12/23 09:56:05;;;;;;;1.13;0.80;;;7.70;90.60;;;6.98;93.61;96932.63;4996213;28;20474;-72
2023/12/23 09:58:35;;;;;;;2.27;0.70;;;7.70;90.60;;;7.06;92.80;96921.63;4997585;28;20479;-73
2023/12/23 10:01:03;;;;;;;4.00;1.07;;;7.70;90.50;;;7.10;92.50;96927.38;5014736;28;20561;-73
2023/12/23 10:03:30;;;;;;;1.30;1.20;;;7.80;90.30;;;7.02;92.96;96920.41;5017145;28;20470;-71
2023/12/23 10:06:01;;;;;;;0.57;0.57;;;7.80;90.30;;;7.07;91.58;96927.81;4996875;28;20469;-70
2023/12/23 10:08:29;;;;;;;0.83;0.83;;;7.80;90.00;;;7.07;91.90;96939.38;5015278;28;20473;-73
2023/12/23 10:10:57;;;;;;;5.07;0.63;;;7.90;90.00;;;6.98;91.33;96905.78;5008054;28;20950;-72
2023/12/23 10:13:28;;;;;;;0.70;0.50;;;7.90;89.80;;;7.24;90.51;96917.34;4998684;28;20885;-73
2023/12/23 10:15:55;;;;;;;2.00;0.50;;;7.90;89.50;;;7.19;90.23;96925.22;4998347;28;20455;-71
2023/12/23 10:18:25;;;;;;;1.17;0.40;;;8.00;89.20;;;7.33;89.68;96916.00;5006925;28;20454;-71
2023/12/23 10:20:56;;;;;;;0.67;0.37;;;8.00;89.00;;;7.29;89.62;96897.88;5017747;28;20454;-69
2023/12/23 10:23:25;;;;;;;0.50;0.50;;;8.00;89.00;;;7.29;89.64;96922.06;5000949;28;21303;-72
2023/12/23 10:25:55;;;;;;;0.97;0.60;;;8.00;89.00;;;7.35;89.11;96900.50;5017607;28;20635;-71
2023/12/23 10:28:26;;;;;;;0.50;0.40;;;8.00;88.70;;;7.30;89.42;96910.25;5021000;28;20458;-71
2023/12/23 10:31:02;;;;;;;0.80;0.50;;;8.00;88.50;;;7.36;88.25;96891.38;5012531;28;20464;-72
2023/12/23 10:33:31;;;;;;;0.97;0.50;;;8.10;88.20;;;7.42;88.97;96896.91;4998004;28;20455;-71